sensor_id;sensor_type;location;lat;lon;timestamp;pressure;altitude;pressure_sealevel;temperature
75431;BMP280;64127;51.488;5.462;2023-05-02T00:01:57;101745.47;;;16.40
75431;BMP280;64127;51.488;5.462;2023-05-02T00:04:29;101766.63;;;16.40
75431;BMP280;64127;51.488;5.462;2023-05-02T00:07:01;101773.50;;;16.35
75431;BMP280;64127;51.488;5.462;2023-05-02T00:09:33;101781.28;;;16.30
75431;BMP280;64127;51.488;5.462;2023-05-02T00:12:05;101774.97;;;16.25
75431;BMP280;64127;51.488;5.462;2023-05-02T00:14:37;101786.47;;;16.27
75431;BMP280;64127;51.488;5.462;2023-05-02T00:17:16;101789.13;;;16.27
75431;BMP280;64127;51.488;5.462;2023-05-02T00:19:49;101792.59;;;16.24
75431;BMP280;64127;51.488;5.462;2023-05-02T00:22:21;101795.28;;;16.26
75431;BMP280;64127;51.488;5.462;2023-05-02T00:24:56;101795.88;;;16.17
75431;BMP280;64127;51.488;5.462;2023-05-02T00:27:30;101799.31;;;16.15
75431;BMP280;64127;51.488;5.462;2023-05-02T00:30:03;101803.00;;;16.20
75431;BMP280;64127;51.488;5.462;2023-05-02T00:32:35;101801.13;;;16.16
75431;BMP280;64127;51.488;5.462;2023-05-02T00:35:07;101804.50;;;16.12
75431;BMP280;64127;51.488;5.462;2023-05-02T00:37:39;101810.94;;;16.20
75431;BMP280;64127;51.488;5.462;2023-05-02T00:40:12;101814.56;;;16.22
75431;BMP280;64127;51.488;5.462;2023-05-02T00:42:44;101788.53;;;16.09
75431;BMP280;64127;51.488;5.462;2023-05-02T00:45:16;101808.44;;;16.23
75431;BMP280;64127;51.488;5.462;2023-05-02T00:47:49;101805.91;;;16.28
75431;BMP280;64127;51.488;5.462;2023-05-02T00:50:21;101803.16;;;16.24
75431;BMP280;64127;51.488;5.462;2023-05-02T00:52:54;101806.63;;;16.22
75431;BMP280;64127;51.488;5.462;2023-05-02T00:55:26;101777.63;;;16.00
75431;BMP280;64127;51.488;5.462;2023-05-02T00:58:14;101825.78;;;16.15
75431;BMP280;64127;51.488;5.462;2023-05-02T01:13:11;101815.50;;;15.99
75431;BMP280;64127;51.488;5.462;2023-05-02T01:15:21;101819.09;;;16.01
75431;BMP280;64127;51.488;5.462;2023-05-02T01:17:56;101814.63;;;15.98
75431;BMP280;64127;51.488;5.462;2023-05-02T01:20:31;101807.31;;;15.91
75431;BMP280;64127;51.488;5.462;2023-05-02T01:23:56;101810.84;;;15.92
75431;BMP280;64127;51.488;5.462;2023-05-02T01:29:22;101820.19;;;16.06
75431;BMP280;64127;51.488;5.462;2023-05-02T01:31:56;101816.56;;;16.04
75431;BMP280;64127;51.488;5.462;2023-05-02T01:34:30;101777.84;;;15.81
75431;BMP280;64127;51.488;5.462;2023-05-02T01:37:05;101777.03;;;15.83
75431;BMP280;64127;51.488;5.462;2023-05-02T01:39:39;101816.75;;;16.10
75431;BMP280;64127;51.488;5.462;2023-05-02T01:42:15;101813.91;;;16.04
75431;BMP280;64127;51.488;5.462;2023-05-02T01:44:50;101822.69;;;16.03
75431;BMP280;64127;51.488;5.462;2023-05-02T01:47:29;101817.38;;;16.01
75431;BMP280;64127;51.488;5.462;2023-05-02T01:50:06;101831.50;;;16.02
75431;BMP280;64127;51.488;5.462;2023-05-02T01:52:41;101789.97;;;15.76
75431;BMP280;64127;51.488;5.462;2023-05-02T01:55:16;101788.22;;;15.76
75431;BMP280;64127;51.488;5.462;2023-05-02T01:57:52;101824.19;;;15.95
75431;BMP280;64127;51.488;5.462;2023-05-02T02:00:26;101832.13;;;15.95
75431;BMP280;64127;51.488;5.462;2023-05-02T02:03:01;101840.84;;;15.92
75431;BMP280;64127;51.488;5.462;2023-05-02T02:05:36;101800.13;;;15.63
75431;BMP280;64127;51.488;5.462;2023-05-02T02:08:10;101848.41;;;15.82
75431;BMP280;64127;51.488;5.462;2023-05-02T02:10:49;101850.06;;;15.80
75431;BMP280;64127;51.488;5.462;2023-05-02T02:13:33;101812.16;;;15.55
75431;BMP280;64127;51.488;5.462;2023-05-02T02:16:11;101863.41;;;15.83
75431;BMP280;64127;51.488;5.462;2023-05-02T02:18:45;101862.34;;;15.78
75431;BMP280;64127;51.488;5.462;2023-05-02T02:21:20;101855.06;;;15.72
75431;BMP280;64127;51.488;5.462;2023-05-02T02:23:56;101825.06;;;15.48
75431;BMP280;64127;51.488;5.462;2023-05-02T02:26:32;101863.69;;;15.66
75431;BMP280;64127;51.488;5.462;2023-05-02T02:29:04;101863.69;;;15.66
75431;BMP280;64127;51.488;5.462;2023-05-02T02:31:36;101865.50;;;15.67
75431;BMP280;64127;51.488;5.462;2023-05-02T02:34:10;101867.28;;;15.68
75431;BMP280;64127;51.488;5.462;2023-05-02T02:36:59;101858.81;;;15.55
75431;BMP280;64127;51.488;5.462;2023-05-02T02:43:07;101879.66;;;15.47
75431;BMP280;64127;51.488;5.462;2023-05-02T02:51:45;101889.41;;;15.48
75431;BMP280;64127;51.488;5.462;2023-05-02T02:54:23;101850.38;;;15.19
75431;BMP280;64127;51.488;5.462;2023-05-02T02:57:30;101892.03;;;15.26
75431;BMP280;64127;51.488;5.462;2023-05-02T03:00:20;101893.59;;;15.21
75431;BMP280;64127;51.488;5.462;2023-05-02T03:02:54;101900.81;;;15.25
75431;BMP280;64127;51.488;5.462;2023-05-02T03:05:29;101900.56;;;15.19
75431;BMP280;64127;51.488;5.462;2023-05-02T03:08:01;101907.91;;;15.26
75431;BMP280;64127;51.488;5.462;2023-05-02T03:10:33;101902.72;;;15.29
75431;BMP280;64127;51.488;5.462;2023-05-02T03:13:06;101913.41;;;15.32
75431;BMP280;64127;51.488;5.462;2023-05-02T03:18:59;101922.44;;;15.37
75431;BMP280;64127;51.488;5.462;2023-05-02T03:21:32;101924.22;;;15.38
75431;BMP280;64127;51.488;5.462;2023-05-02T03:24:04;101924.22;;;15.38
75431;BMP280;64127;51.488;5.462;2023-05-02T03:26:36;101919.03;;;15.41
75431;BMP280;64127;51.488;5.462;2023-05-02T03:29:08;101921.69;;;15.41
75431;BMP280;64127;51.488;5.462;2023-05-02T03:31:41;101883.03;;;15.21
75431;BMP280;64127;51.488;5.462;2023-05-02T03:34:13;101929.63;;;15.41
75431;BMP280;64127;51.488;5.462;2023-05-02T03:36:45;101924.41;;;15.43
75431;BMP280;64127;51.488;5.462;2023-05-02T03:39:17;101931.06;;;15.33
75431;BMP280;64127;51.488;5.462;2023-05-02T03:41:49;101929.03;;;15.26
75431;BMP280;64127;51.488;5.462;2023-05-02T03:44:21;101921.22;;;15.29
75431;BMP280;64127;51.488;5.462;2023-05-02T03:46:53;101942.47;;;15.32
75431;BMP280;64127;51.488;5.462;2023-05-02T03:49:25;101931.06;;;15.33
75431;BMP280;64127;51.488;5.462;2023-05-02T03:51:59;101923.97;;;15.32
75431;BMP280;64127;51.488;5.462;2023-05-02T03:54:31;101930.25;;;15.34
75431;BMP280;64127;51.488;5.462;2023-05-02T03:57:03;101898.53;;;15.12
75431;BMP280;64127;51.488;5.462;2023-05-02T03:59:36;101946.03;;;15.33
75431;BMP280;64127;51.488;5.462;2023-05-02T04:02:12;101909.00;;;15.10
75431;BMP280;64127;51.488;5.462;2023-05-02T04:04:45;101940.53;;;15.28
75431;BMP280;64127;51.488;5.462;2023-05-02T04:07:17;101957.50;;;15.33
75431;BMP280;64127;51.488;5.462;2023-05-02T04:09:50;101960.97;;;15.32
75431;BMP280;64127;51.488;5.462;2023-05-02T04:12:22;101968.00;;;15.32
75431;BMP280;64127;51.488;5.462;2023-05-02T04:14:55;101926.47;;;15.07
75431;BMP280;64127;51.488;5.462;2023-05-02T04:17:27;101970.47;;;15.27
75431;BMP280;64127;51.488;5.462;2023-05-02T04:19:59;101974.16;;;15.31
75431;BMP280;64127;51.488;5.462;2023-05-02T04:22:35;101973.47;;;15.36
75431;BMP280;64127;51.488;5.462;2023-05-02T04:25:10;101987.75;;;15.41
75431;BMP280;64127;51.488;5.462;2023-05-02T04:27:42;101991.31;;;15.42
75431;BMP280;64127;51.488;5.462;2023-05-02T04:30:15;102002.53;;;15.36
75431;BMP280;64127;51.488;5.462;2023-05-02T04:32:47;101988.22;;;15.52
75431;BMP280;64127;51.488;5.462;2023-05-02T04:35:19;102001.44;;;15.31
75431;BMP280;64127;51.488;5.462;2023-05-02T04:37:51;101999.13;;;15.18
75431;BMP280;64127;51.488;5.462;2023-05-02T04:40:23;101973.63;;;14.98
75431;BMP280;64127;51.488;5.462;2023-05-02T04:42:55;102015.84;;;15.17
75431;BMP280;64127;51.488;5.462;2023-05-02T04:45:27;102019.78;;;15.06
75431;BMP280;64127;51.488;5.462;2023-05-02T04:47:59;102028.13;;;14.96
75431;BMP280;64127;51.488;5.462;2023-05-02T04:50:31;102020.91;;;14.92
75431;BMP280;64127;51.488;5.462;2023-05-02T04:53:04;102031.69;;;14.96
75431;BMP280;64127;51.488;5.462;2023-05-02T04:55:36;102036.63;;;14.89
75431;BMP280;64127;51.488;5.462;2023-05-02T04:58:08;102039.97;;;14.85
75431;BMP280;64127;51.488;5.462;2023-05-02T05:00:40;102054.00;;;14.84
75431;BMP280;64127;51.488;5.462;2023-05-02T05:03:12;102052.34;;;14.86
75431;BMP280;64127;51.488;5.462;2023-05-02T05:05:44;102055.13;;;14.89
75431;BMP280;64127;51.488;5.462;2023-05-02T05:08:16;102051.56;;;14.88
75431;BMP280;64127;51.488;5.462;2023-05-02T05:10:49;102017.91;;;14.63
75431;BMP280;64127;51.488;5.462;2023-05-02T05:13:21;102060.41;;;14.89
75431;BMP280;64127;51.488;5.462;2023-05-02T05:15:53;102026.94;;;14.68
75431;BMP280;64127;51.488;5.462;2023-05-02T05:18:26;102062.03;;;14.87
75431;BMP280;64127;51.488;5.462;2023-05-02T05:20:58;102070.97;;;14.89
75431;BMP280;64127;51.488;5.462;2023-05-02T05:23:30;101995.25;;;14.48
75431;BMP280;64127;51.488;5.462;2023-05-02T05:26:15;102080.66;;;14.90
75431;BMP280;64127;51.488;5.462;2023-05-02T05:28:47;102084.28;;;14.92
75431;BMP280;64127;51.488;5.462;2023-05-02T05:31:21;102071.66;;;14.85
75431;BMP280;64127;51.488;5.462;2023-05-02T05:33:55;102081.56;;;14.90
75431;BMP280;64127;51.488;5.462;2023-05-02T05:36:28;102091.22;;;14.90
75431;BMP280;64127;51.488;5.462;2023-05-02T05:39:00;102093.16;;;14.94
75431;BMP280;64127;51.488;5.462;2023-05-02T05:41:32;102055.69;;;14.82
75431;BMP280;64127;51.488;5.462;2023-05-02T05:44:04;102088.19;;;15.00
75431;BMP280;64127;51.488;5.462;2023-05-02T05:46:37;102090.03;;;15.02
75431;BMP280;64127;51.488;5.462;2023-05-02T05:49:09;102097.31;;;15.08
75431;BMP280;64127;51.488;5.462;2023-05-02T05:51:41;102091.00;;;15.04
75431;BMP280;64127;51.488;5.462;2023-05-02T05:54:13;102100.09;;;15.11
75431;BMP280;64127;51.488;5.462;2023-05-02T05:56:45;102103.03;;;15.17
75431;BMP280;64127;51.488;5.462;2023-05-02T05:59:17;102100.81;;;15.28
75431;BMP280;64127;51.488;5.462;2023-05-02T06:01:50;102103.91;;;15.38
75431;BMP280;64127;51.488;5.462;2023-05-02T06:04:22;102109.59;;;15.47
75431;BMP280;64127;51.488;5.462;2023-05-02T06:06:55;102110.25;;;15.62
75431;BMP280;64127;51.488;5.462;2023-05-02T06:09:28;102110.66;;;15.71
75431;BMP280;64127;51.488;5.462;2023-05-02T06:12:00;102123.59;;;15.86
75431;BMP280;64127;51.488;5.462;2023-05-02T06:14:33;102116.81;;;15.93
75431;BMP280;64127;51.488;5.462;2023-05-02T06:17:05;102123.63;;;16.08
75431;BMP280;64127;51.488;5.462;2023-05-02T06:19:37;102126.75;;;16.20
75431;BMP280;64127;51.488;5.462;2023-05-02T06:22:11;102080.16;;;16.02
75431;BMP280;64127;51.488;5.462;2023-05-02T06:24:44;102132.66;;;16.36
75431;BMP280;64127;51.488;5.462;2023-05-02T06:27:16;102132.09;;;16.44
75431;BMP280;64127;51.488;5.462;2023-05-02T06:29:52;102140.56;;;16.56
75431;BMP280;64127;51.488;5.462;2023-05-02T06:32:30;102148.03;;;16.68
75431;BMP280;64127;51.488;5.462;2023-05-02T06:35:03;102148.09;;;16.69
75431;BMP280;64127;51.488;5.462;2023-05-02T06:37:35;102154.63;;;16.78
75431;BMP280;64127;51.488;5.462;2023-05-02T06:40:08;102111.69;;;16.42
75431;BMP280;64127;51.488;5.462;2023-05-02T06:42:40;102166.50;;;16.44
75431;BMP280;64127;51.488;5.462;2023-05-02T06:45:12;102164.81;;;16.24
75431;BMP280;64127;51.488;5.462;2023-05-02T06:47:44;102175.28;;;16.21
75431;BMP280;64127;51.488;5.462;2023-05-02T06:50:17;102140.94;;;15.80
75431;BMP280;64127;51.488;5.462;2023-05-02T06:52:49;102177.41;;;15.87
75431;BMP280;64127;51.488;5.462;2023-05-02T06:55:21;102173.22;;;15.92
75431;BMP280;64127;51.488;5.462;2023-05-02T06:57:53;102181.16;;;16.14
75431;BMP280;64127;51.488;5.462;2023-05-02T07:00:27;102185.03;;;16.22
75431;BMP280;64127;51.488;5.462;2023-05-02T07:02:59;102188.53;;;16.21
75431;BMP280;64127;51.488;5.462;2023-05-02T07:05:31;102189.97;;;16.13
75431;BMP280;64127;51.488;5.462;2023-05-02T07:08:04;102188.38;;;15.96
75431;BMP280;64127;51.488;5.462;2023-05-02T07:10:36;102201.31;;;15.90
75431;BMP280;64127;51.488;5.462;2023-05-02T07:13:08;102204.81;;;15.89
75431;BMP280;64127;51.488;5.462;2023-05-02T07:15:41;102204.28;;;16.18
75431;BMP280;64127;51.488;5.462;2023-05-02T07:18:13;102212.25;;;16.40
75431;BMP280;64127;51.488;5.462;2023-05-02T07:20:45;102212.25;;;16.40
75431;BMP280;64127;51.488;5.462;2023-05-02T07:23:18;102213.56;;;16.51
75431;BMP280;64127;51.488;5.462;2023-05-02T07:25:51;102222.28;;;16.69
75431;BMP280;64127;51.488;5.462;2023-05-02T07:28:23;102227.22;;;16.60
75431;BMP280;64127;51.488;5.462;2023-05-02T07:30:55;102190.56;;;16.28
75431;BMP280;64127;51.488;5.462;2023-05-02T07:33:27;102231.84;;;16.45
75431;BMP280;64127;51.488;5.462;2023-05-02T07:36:01;102237.81;;;16.40
75431;BMP280;64127;51.488;5.462;2023-05-02T07:38:33;102233.16;;;16.34
75431;BMP280;64127;51.488;5.462;2023-05-02T07:41:05;102236.84;;;16.38
75431;BMP280;64127;51.488;5.462;2023-05-02T07:43:37;102234.84;;;16.32
75431;BMP280;64127;51.488;5.462;2023-05-02T07:46:09;102240.28;;;16.35
75431;BMP280;64127;51.488;5.462;2023-05-02T07:48:42;102199.88;;;16.18
75431;BMP280;64127;51.488;5.462;2023-05-02T07:51:14;102240.75;;;16.47
75431;BMP280;64127;51.488;5.462;2023-05-02T07:53:49;102239.69;;;16.42
75431;BMP280;64127;51.488;5.462;2023-05-02T07:56:24;102249.00;;;16.33
75431;BMP280;64127;51.488;5.462;2023-05-02T07:58:56;102246.69;;;16.19
75431;BMP280;64127;51.488;5.462;2023-05-02T08:01:28;102249.06;;;16.13
75431;BMP280;64127;51.488;5.462;2023-05-02T08:04:00;102252.56;;;16.12
75431;BMP280;64127;51.488;5.462;2023-05-02T08:06:33;102249.84;;;16.11
75431;BMP280;64127;51.488;5.462;2023-05-02T08:09:05;102229.47;;;15.88
75431;BMP280;64127;51.488;5.462;2023-05-02T08:11:37;102266.63;;;15.91
75431;BMP280;64127;51.488;5.462;2023-05-02T08:14:09;102267.28;;;15.85
75431;BMP280;64127;51.488;5.462;2023-05-02T08:16:42;102269.63;;;15.79
75431;BMP280;64127;51.488;5.462;2023-05-02T08:19:17;102282.81;;;15.78
75431;BMP280;64127;51.488;5.462;2023-05-02T08:21:49;102274.59;;;15.71
75431;BMP280;64127;51.488;5.462;2023-05-02T08:24:21;102225.34;;;15.35
75431;BMP280;64127;51.488;5.462;2023-05-02T08:26:53;102290.97;;;15.63
75431;BMP280;64127;51.488;5.462;2023-05-02T08:29:29;102288.41;;;15.64
75431;BMP280;64127;51.488;5.462;2023-05-02T08:32:02;102296.09;;;15.60
75431;BMP280;64127;51.488;5.462;2023-05-02T08:34:34;102268.41;;;15.33
75431;BMP280;64127;51.488;5.462;2023-05-02T08:37:09;102302.03;;;15.54
75431;BMP280;64127;51.488;5.462;2023-05-02T08:39:42;102302.19;;;15.57
75431;BMP280;64127;51.488;5.462;2023-05-02T08:42:14;102299.22;;;15.70
75431;BMP280;64127;51.488;5.462;2023-05-02T08:44:48;102305.03;;;15.83
75431;BMP280;64127;51.488;5.462;2023-05-02T08:47:22;102300.22;;;15.93
75431;BMP280;64127;51.488;5.462;2023-05-02T08:49:58;102302.38;;;16.02
75431;BMP280;64127;51.488;5.462;2023-05-02T08:52:32;102308.59;;;16.02
75431;BMP280;64127;51.488;5.462;2023-05-02T08:55:06;102309.09;;;16.14
75431;BMP280;64127;51.488;5.462;2023-05-02T08:57:39;102307.41;;;16.16
75431;BMP280;64127;51.488;5.462;2023-05-02T09:00:12;102307.69;;;16.22
75431;BMP280;64127;51.488;5.462;2023-05-02T09:03:29;102278.81;;;16.08
75431;BMP280;64127;51.488;5.462;2023-05-02T09:06:15;102325.09;;;16.38
75431;BMP280;64127;51.488;5.462;2023-05-02T09:08:50;102285.72;;;16.25
75431;BMP280;64127;51.488;5.462;2023-05-02T09:11:25;102281.84;;;16.38
75431;BMP280;64127;51.488;5.462;2023-05-02T09:13:58;102282.38;;;16.50
75431;BMP280;64127;51.488;5.462;2023-05-02T09:16:38;102331.09;;;16.76
75431;BMP280;64127;51.488;5.462;2023-05-02T09:19:23;102328.47;;;16.76
75431;BMP280;64127;51.488;5.462;2023-05-02T09:21:59;102328.78;;;16.83
75431;BMP280;64127;51.488;5.462;2023-05-02T09:24:32;102323.66;;;16.88
75431;BMP280;64127;51.488;5.462;2023-05-02T09:27:04;102302.19;;;16.82
75431;BMP280;64127;51.488;5.462;2023-05-02T09:29:36;102312.22;;;16.89
75431;BMP280;64127;51.488;5.462;2023-05-02T09:32:09;102303.84;;;17.00
75431;BMP280;64127;51.488;5.462;2023-05-02T09:35:05;102296.88;;;17.26
75431;BMP280;64127;51.488;5.462;2023-05-02T09:37:38;102334.38;;;18.06
75431;BMP280;64127;51.488;5.462;2023-05-02T09:40:10;102297.44;;;18.39
75431;BMP280;64127;51.488;5.462;2023-05-02T09:42:43;102332.53;;;18.54
75431;BMP280;64127;51.488;5.462;2023-05-02T09:45:24;102343.13;;;18.29
75431;BMP280;64127;51.488;5.462;2023-05-02T09:48:01;102353.16;;;18.11
75431;BMP280;64127;51.488;5.462;2023-05-02T09:50:36;102355.19;;;17.94
75431;BMP280;64127;51.488;5.462;2023-05-02T09:53:08;102357.88;;;17.96
75431;BMP280;64127;51.488;5.462;2023-05-02T09:55:41;102362.66;;;18.04
75431;BMP280;64127;51.488;5.462;2023-05-02T09:58:21;102363.31;;;17.99
75431;BMP280;64127;51.488;5.462;2023-05-02T10:00:54;102322.41;;;17.68
75431;BMP280;64127;51.488;5.462;2023-05-02T10:03:28;102360.25;;;17.88
75431;BMP280;64127;51.488;5.462;2023-05-02T10:06:01;102363.00;;;17.90
75431;BMP280;64127;51.488;5.462;2023-05-02T10:08:35;102362.91;;;17.88
75431;BMP280;64127;51.488;5.462;2023-05-02T10:11:08;102362.00;;;17.88
75431;BMP280;64127;51.488;5.462;2023-05-02T10:13:42;102352.19;;;17.85
75431;BMP280;64127;51.488;5.462;2023-05-02T10:16:22;102369.81;;;17.83
75431;BMP280;64127;51.488;5.462;2023-05-02T10:19:06;102363.44;;;17.78
75431;BMP280;64127;51.488;5.462;2023-05-02T10:21:42;102369.09;;;17.87
75431;BMP280;64127;51.488;5.462;2023-05-02T10:24:15;102329.22;;;17.86
75431;BMP280;64127;51.488;5.462;2023-05-02T10:26:48;102362.38;;;18.22
75431;BMP280;64127;51.488;5.462;2023-05-02T10:29:21;102327.53;;;18.13
75431;BMP280;64127;51.488;5.462;2023-05-02T10:31:55;102312.25;;;18.06
75431;BMP280;64127;51.488;5.462;2023-05-02T10:34:31;102358.56;;;18.64
75431;BMP280;64127;51.488;5.462;2023-05-02T10:37:04;102324.97;;;18.66
75431;BMP280;64127;51.488;5.462;2023-05-02T10:39:36;102321.84;;;18.53
75431;BMP280;64127;51.488;5.462;2023-05-02T10:42:09;102362.88;;;18.61
75431;BMP280;64127;51.488;5.462;2023-05-02T10:44:41;102368.81;;;18.54
75431;BMP280;64127;51.488;5.462;2023-05-02T10:47:27;102373.53;;;18.37
75431;BMP280;64127;51.488;5.462;2023-05-02T10:50:01;102373.84;;;18.21
75431;BMP280;64127;51.488;5.462;2023-05-02T10:52:37;102371.47;;;18.05
75431;BMP280;64127;51.488;5.462;2023-05-02T10:55:16;102369.59;;;18.01
75431;BMP280;64127;51.488;5.462;2023-05-02T11:00:32;102360.38;;;18.15
75431;BMP280;64127;51.488;5.462;2023-05-02T11:03:05;102378.09;;;18.16
75431;BMP280;64127;51.488;5.462;2023-05-02T11:06:04;102378.69;;;18.07
75431;BMP280;64127;51.488;5.462;2023-05-02T11:08:37;102373.31;;;18.06
75431;BMP280;64127;51.488;5.462;2023-05-02T11:11:43;102389.31;;;18.07
75431;BMP280;64127;51.488;5.462;2023-05-02T11:24:50;102384.44;;;18.70
75431;BMP280;64127;51.488;5.462;2023-05-02T11:30:02;102378.25;;;18.69
75431;BMP280;64127;51.488;5.462;2023-05-02T11:35:23;102375.13;;;18.56
75431;BMP280;64127;51.488;5.462;2023-05-02T11:38:00;102371.25;;;18.48
75431;BMP280;64127;51.488;5.462;2023-05-02T11:40:35;102309.63;;;18.33
75431;BMP280;64127;51.488;5.462;2023-05-02T11:43:15;102364.22;;;19.02
75431;BMP280;64127;51.488;5.462;2023-05-02T11:45:47;102372.09;;;18.99
75431;BMP280;64127;51.488;5.462;2023-05-02T11:48:22;102363.47;;;19.06
75431;BMP280;64127;51.488;5.462;2023-05-02T11:50:58;102372.38;;;19.08
75431;BMP280;64127;51.488;5.462;2023-05-02T11:53:39;102372.25;;;19.03
75431;BMP280;64127;51.488;5.462;2023-05-02T11:56:12;102367.78;;;19.02
75431;BMP280;64127;51.488;5.462;2023-05-02T11:58:44;102380.19;;;19.30
75431;BMP280;64127;51.488;5.462;2023-05-02T12:01:17;102380.94;;;19.26
75431;BMP280;64127;51.488;5.462;2023-05-02T12:04:00;102380.53;;;19.12
75431;BMP280;64127;51.488;5.462;2023-05-02T12:06:33;102383.75;;;19.02
75431;BMP280;64127;51.488;5.462;2023-05-02T12:09:14;102340.81;;;18.90
75431;BMP280;64127;51.488;5.462;2023-05-02T12:11:52;102386.59;;;19.37
75431;BMP280;64127;51.488;5.462;2023-05-02T12:14:31;102368.72;;;19.33
75431;BMP280;64127;51.488;5.462;2023-05-02T12:17:04;102380.28;;;19.33
75431;BMP280;64127;51.488;5.462;2023-05-02T12:19:37;102396.34;;;19.36
75431;BMP280;64127;51.488;5.462;2023-05-02T12:22:10;102399.66;;;19.29
75431;BMP280;64127;51.488;5.462;2023-05-02T12:24:44;102404.97;;;19.29
75431;BMP280;64127;51.488;5.462;2023-05-02T12:27:16;102393.09;;;19.45
75431;BMP280;64127;51.488;5.462;2023-05-02T12:29:49;102399.63;;;19.56
75431;BMP280;64127;51.488;5.462;2023-05-02T12:32:31;102367.38;;;19.17
75431;BMP280;64127;51.488;5.462;2023-05-02T12:35:04;102409.16;;;19.48
75431;BMP280;64127;51.488;5.462;2023-05-02T12:37:36;102409.00;;;19.71
75431;BMP280;64127;51.488;5.462;2023-05-02T12:40:15;102411.69;;;19.73
75431;BMP280;64127;51.488;5.462;2023-05-02T12:43:00;102426.06;;;19.50
75431;BMP280;64127;51.488;5.462;2023-05-02T12:45:35;102386.94;;;19.19
75431;BMP280;64127;51.488;5.462;2023-05-02T12:50:49;102428.63;;;19.47
75431;BMP280;64127;51.488;5.462;2023-05-02T12:53:43;102394.47;;;19.60
75431;BMP280;64127;51.488;5.462;2023-05-02T12:56:16;102415.72;;;19.89
75431;BMP280;64127;51.488;5.462;2023-05-02T12:58:49;102409.59;;;19.61
75431;BMP280;64127;51.488;5.462;2023-05-02T13:01:21;102424.06;;;19.43
75431;BMP280;64127;51.488;5.462;2023-05-02T13:03:54;102433.28;;;19.54
75431;BMP280;64127;51.488;5.462;2023-05-02T13:06:27;102429.22;;;19.66
75431;BMP280;64127;51.488;5.462;2023-05-02T13:08:59;102416.16;;;19.74
75431;BMP280;64127;51.488;5.462;2023-05-02T13:11:31;102426.88;;;19.76
75431;BMP280;64127;51.488;5.462;2023-05-02T13:14:03;102429.97;;;19.91
75431;BMP280;64127;51.488;5.462;2023-05-02T13:16:36;102425.25;;;20.12
75431;BMP280;64127;51.488;5.462;2023-05-02T13:19:09;102398.28;;;20.00
75431;BMP280;64127;51.488;5.462;2023-05-02T13:21:41;102428.97;;;20.17
75431;BMP280;64127;51.488;5.462;2023-05-02T13:24:13;102393.22;;;20.09
75431;BMP280;64127;51.488;5.462;2023-05-02T13:26:45;102421.06;;;20.20
75431;BMP280;64127;51.488;5.462;2023-05-02T13:29:17;102422.06;;;20.25
75431;BMP280;64127;51.488;5.462;2023-05-02T13:31:49;102420.25;;;20.22
75431;BMP280;64127;51.488;5.462;2023-05-02T13:34:21;102428.22;;;20.22
75431;BMP280;64127;51.488;5.462;2023-05-02T13:36:54;102393.63;;;20.24
75431;BMP280;64127;51.488;5.462;2023-05-02T13:39:27;102416.53;;;20.47
75431;BMP280;64127;51.488;5.462;2023-05-02T13:42:00;102421.22;;;20.57
75431;BMP280;64127;51.488;5.462;2023-05-02T13:44:37;102431.00;;;20.58
75431;BMP280;64127;51.488;5.462;2023-05-02T13:47:09;102421.59;;;20.72
75431;BMP280;64127;51.488;5.462;2023-05-02T13:49:41;102395.75;;;20.68
75431;BMP280;64127;51.488;5.462;2023-05-02T13:52:13;102424.94;;;20.98
75431;BMP280;64127;51.488;5.462;2023-05-02T13:54:45;102421.31;;;20.95
75431;BMP280;64127;51.488;5.462;2023-05-02T13:57:17;102428.31;;;20.91
75431;BMP280;64127;51.488;5.462;2023-05-02T13:59:49;102403.97;;;20.78
75431;BMP280;64127;51.488;5.462;2023-05-02T14:02:22;102429.59;;;20.72
75431;BMP280;64127;51.488;5.462;2023-05-02T14:04:54;102433.88;;;20.64
75431;BMP280;64127;51.488;5.462;2023-05-02T14:07:27;102431.81;;;20.54
75431;BMP280;64127;51.488;5.462;2023-05-02T14:09:59;102428.50;;;20.30
75431;BMP280;64127;51.488;5.462;2023-05-02T14:12:32;102390.78;;;20.18
75431;BMP280;64127;51.488;5.462;2023-05-02T14:15:05;102418.28;;;20.47
75431;BMP280;64127;51.488;5.462;2023-05-02T14:17:37;102430.84;;;20.52
75431;BMP280;64127;51.488;5.462;2023-05-02T14:20:09;102421.03;;;20.50
75431;BMP280;64127;51.488;5.462;2023-05-02T14:22:41;102413.84;;;20.47
75431;BMP280;64127;51.488;5.462;2023-05-02T14:25:14;102423.59;;;20.47
75431;BMP280;64127;51.488;5.462;2023-05-02T14:27:46;102414.91;;;20.54
75431;BMP280;64127;51.488;5.462;2023-05-02T14:30:18;102408.75;;;20.56
75431;BMP280;64127;51.488;5.462;2023-05-02T14:32:50;102417.09;;;20.68
75431;BMP280;64127;51.488;5.462;2023-05-02T14:35:23;102414.41;;;20.68
75431;BMP280;64127;51.488;5.462;2023-05-02T14:37:55;102418.03;;;20.72
75431;BMP280;64127;51.488;5.462;2023-05-02T14:40:27;102417.19;;;20.73
75431;BMP280;64127;51.488;5.462;2023-05-02T14:42:59;102403.00;;;20.74
75431;BMP280;64127;51.488;5.462;2023-05-02T14:45:32;102418.78;;;20.65
75431;BMP280;64127;51.488;5.462;2023-05-02T14:48:04;102408.84;;;20.59
75431;BMP280;64127;51.488;5.462;2023-05-02T14:50:37;102408.75;;;20.56
75431;BMP280;64127;51.488;5.462;2023-05-02T14:53:10;102405.19;;;20.56
75431;BMP280;64127;51.488;5.462;2023-05-02T14:55:42;102394.41;;;20.51
75431;BMP280;64127;51.488;5.462;2023-05-02T14:58:15;102358.88;;;20.19
75431;BMP280;64127;51.488;5.462;2023-05-02T15:00:51;102408.44;;;20.44
75431;BMP280;64127;51.488;5.462;2023-05-02T15:03:23;102364.13;;;20.16
75431;BMP280;64127;51.488;5.462;2023-05-02T15:05:56;102416.44;;;20.13
75431;BMP280;64127;51.488;5.462;2023-05-02T15:08:28;102412.38;;;19.96
75431;BMP280;64127;51.488;5.462;2023-05-02T15:11:00;102408.75;;;19.94
75431;BMP280;64127;51.488;5.462;2023-05-02T15:13:32;102416.06;;;20.01
75431;BMP280;64127;51.488;5.462;2023-05-02T15:16:04;102409.81;;;20.00
75431;BMP280;64127;51.488;5.462;2023-05-02T15:18:37;102415.94;;;19.96
75431;BMP280;64127;51.488;5.462;2023-05-02T15:21:09;102405.41;;;20.01
75431;BMP280;64127;51.488;5.462;2023-05-02T15:23:42;102414.78;;;20.18
75431;BMP280;64127;51.488;5.462;2023-05-02T15:26:14;102407.28;;;20.03